createdAt,value
2018-02-10T00:01:20.294Z,59.20
2018-02-10T00:03:47.814Z,59.30
2018-02-10T00:06:15.692Z,59.10
2018-02-10T00:08:43.273Z,59.30
2018-02-10T00:11:10.953Z,59.20
2018-02-10T00:13:38.621Z,59.20
2018-02-10T00:16:06.269Z,59.30
2018-02-10T00:18:33.922Z,59.20
2018-02-10T00:21:01.582Z,59.00
2018-02-10T00:23:29.238Z,59.30
2018-02-10T00:25:56.894Z,59.20
2018-02-10T00:28:24.562Z,59.10
2018-02-10T00:30:52.221Z,59.30
2018-02-10T00:33:19.770Z,59.30
2018-02-10T00:35:48.522Z,59.40
2018-02-10T00:38:17.286Z,59.40
2018-02-10T00:40:45.158Z,59.40
2018-02-10T00:43:13.542Z,59.50
2018-02-10T00:45:42.057Z,59.50
2018-02-10T00:48:09.882Z,59.50
2018-02-10T00:50:37.538Z,59.50
2018-02-10T00:53:05.194Z,59.60
2018-02-10T00:55:32.863Z,59.50
2018-02-10T00:58:00.526Z,59.60
2018-02-10T01:00:28.190Z,59.60
2018-02-10T01:02:55.857Z,59.40
2018-02-10T01:05:23.518Z,59.40
2018-02-10T01:07:52.053Z,59.60
2018-02-10T01:10:19.858Z,59.60
2018-02-10T01:12:47.521Z,59.70
2018-02-10T01:15:15.190Z,59.50
2018-02-10T01:17:43.838Z,59.80
2018-02-10T01:20:11.474Z,59.50
2018-02-10T01:22:39.198Z,59.70
2018-02-10T01:25:07.506Z,60.10
2018-02-10T01:27:35.382Z,60.10
2018-02-10T01:30:03.130Z,60.10
2018-02-10T01:32:30.994Z,60.20
2018-02-10T01:34:58.592Z,60.20
2018-02-10T01:37:26.362Z,60.20
2018-02-10T01:39:54.115Z,60.30
2018-02-10T01:42:21.866Z,60.00
2018-02-10T01:44:49.530Z,60.10
2018-02-10T01:47:17.046Z,60.20
2018-02-10T01:49:45.761Z,60.10
2018-02-10T01:52:13.661Z,60.00
2018-02-10T01:54:41.538Z,60.00
2018-02-10T01:57:09.302Z,59.90
2018-02-10T01:59:37.214Z,59.90
2018-02-10T02:02:05.001Z,59.90
2018-02-10T02:04:32.746Z,60.20
2018-02-10T02:07:00.279Z,60.50
2018-02-10T02:09:28.621Z,60.40
2018-02-10T02:11:56.374Z,60.40
2018-02-10T02:14:24.045Z,60.30
2018-02-10T02:16:51.750Z,60.50
2018-02-10T02:19:20.230Z,60.60
2018-02-10T02:21:48.668Z,60.70
2018-02-10T02:24:16.330Z,60.70
2018-02-10T02:26:44.958Z,60.20
2018-02-10T02:29:13.346Z,60.00
2018-02-10T02:31:42.079Z,60.00
2018-02-10T02:34:09.585Z,60.00
2018-02-10T02:36:37.130Z,60.20
2018-02-10T02:39:05.726Z,60.50
2018-02-10T02:41:34.009Z,60.60
2018-02-10T02:44:02.640Z,60.50
2018-02-10T02:46:30.404Z,60.50
2018-02-10T02:48:58.271Z,60.60
2018-02-10T02:51:25.829Z,60.70
2018-02-10T02:53:53.492Z,60.70
2018-02-10T02:56:21.256Z,60.80
2018-02-10T02:58:48.963Z,60.70
2018-02-10T03:01:17.442Z,60.90
2018-02-10T03:03:45.786Z,60.80
2018-02-10T03:06:13.482Z,60.70
2018-02-10T03:08:41.919Z,60.60
2018-02-10T03:11:09.786Z,60.60
2018-02-10T03:13:37.301Z,60.60
2018-02-10T03:16:05.928Z,60.70
2018-02-10T03:18:33.502Z,60.70
2018-02-10T03:21:01.194Z,61.00
2018-02-10T03:23:29.630Z,60.80
2018-02-10T03:25:57.292Z,60.70
2018-02-10T03:28:24.814Z,60.80
2018-02-10T03:30:52.450Z,60.90
2018-02-10T03:33:20.934Z,61.10
2018-02-10T03:35:49.474Z,61.00
2018-02-10T03:38:17.066Z,60.90
2018-02-10T03:40:44.625Z,61.00
2018-02-10T03:43:12.398Z,61.10
2018-02-10T03:45:40.886Z,61.70
2018-02-10T03:48:09.363Z,61.40
2018-02-10T03:50:38.005Z,61.30
2018-02-10T03:53:05.598Z,61.20
2018-02-10T03:55:33.328Z,61.20
2018-02-10T03:58:01.035Z,61.30
2018-02-10T04:00:29.514Z,61.00
2018-02-10T04:02:58.054Z,61.20
2018-02-10T04:05:26.023Z,61.10
2018-02-10T04:07:53.684Z,60.90
2018-02-10T04:10:21.210Z,61.20
2018-02-10T04:12:49.111Z,61.40
2018-02-10T04:15:16.612Z,61.40
2018-02-10T04:17:44.370Z,61.40
2018-02-10T04:20:12.813Z,61.40
2018-02-10T04:22:40.519Z,61.10
2018-02-10T04:25:08.846Z,61.30
2018-02-10T04:27:36.616Z,61.30
2018-02-10T04:30:04.323Z,61.20
2018-02-10T04:32:32.861Z,61.30
2018-02-10T04:35:00.625Z,61.30
2018-02-10T04:37:28.330Z,61.60
2018-02-10T04:39:56.677Z,61.80
2018-02-10T04:42:24.635Z,61.80
2018-02-10T04:44:52.169Z,61.70
2018-02-10T04:47:19.958Z,61.90
2018-02-10T04:49:47.722Z,61.50
2018-02-10T04:52:15.588Z,61.50
2018-02-10T04:54:43.293Z,61.70
2018-02-10T04:57:11.731Z,61.90
2018-02-10T04:59:39.393Z,61.80
2018-02-10T05:02:07.102Z,61.90
2018-02-10T05:04:35.533Z,61.80
2018-02-10T05:07:03.242Z,61.70
2018-02-10T05:09:31.781Z,61.60
2018-02-10T05:11:59.548Z,61.40
2018-02-10T05:14:27.206Z,61.60
2018-02-10T05:16:54.974Z,61.40
2018-02-10T05:19:22.734Z,61.50
2018-02-10T05:21:50.277Z,61.30
2018-02-10T05:24:17.834Z,61.20
2018-02-10T05:26:45.515Z,61.50
2018-02-10T05:29:13.176Z,61.80
2018-02-10T05:31:41.043Z,61.80
2018-02-10T05:34:08.909Z,61.90
2018-02-10T05:36:36.674Z,61.70
2018-02-10T05:39:04.336Z,61.80
2018-02-10T05:41:32.100Z,62.00
2018-02-10T05:43:59.765Z,61.70
2018-02-10T05:46:27.469Z,61.60
2018-02-10T05:48:55.290Z,61.70
2018-02-10T05:51:23.054Z,61.30
2018-02-10T05:53:50.757Z,61.30
2018-02-10T05:56:19.197Z,61.30
2018-02-10T05:58:46.960Z,61.30
2018-02-10T06:01:14.674Z,61.30
2018-02-10T06:03:43.206Z,61.30
2018-02-10T06:06:10.909Z,61.20
2018-02-10T06:08:39.348Z,61.10
2018-02-10T06:11:06.920Z,61.10
2018-02-10T06:13:34.610Z,61.00
2018-02-10T06:16:03.152Z,61.30
2018-02-10T06:18:30.814Z,61.30
2018-02-10T06:20:58.518Z,61.10
2018-02-10T06:23:26.445Z,61.00
2018-02-10T06:25:54.154Z,61.40
2018-02-10T06:28:21.870Z,61.50
2018-02-10T06:30:49.634Z,61.60
2018-02-10T06:33:17.296Z,61.80
2018-02-10T06:35:45.061Z,61.80
2018-02-10T06:38:12.602Z,61.80
2018-02-10T06:40:40.284Z,61.70
2018-02-10T06:43:07.942Z,61.60
2018-02-10T06:45:35.650Z,61.40
2018-02-10T06:48:04.085Z,61.40
2018-02-10T06:50:31.718Z,61.30
2018-02-10T06:52:59.346Z,61.20
2018-02-10T06:55:27.718Z,61.70
2018-02-10T06:57:55.489Z,61.60
2018-02-10T07:00:24.033Z,61.80
2018-02-10T07:02:51.899Z,61.70
2018-02-10T07:05:19.530Z,61.80
2018-02-10T07:07:47.266Z,61.90
2018-02-10T07:10:15.703Z,61.90
2018-02-10T07:12:43.467Z,61.80
2018-02-10T07:15:11.174Z,61.70
2018-02-10T07:17:39.712Z,61.80
2018-02-10T07:20:08.398Z,61.70
2018-02-10T07:22:36.106Z,61.70
2018-02-10T07:25:04.643Z,61.70
2018-02-10T07:27:32.304Z,61.60
2018-02-10T07:30:00.173Z,61.60
2018-02-10T07:32:27.978Z,61.90
2018-02-10T07:34:56.322Z,61.90
2018-02-10T07:37:23.946Z,61.90
2018-02-10T07:39:51.565Z,62.00
2018-02-10T07:42:19.197Z,62.10
2018-02-10T07:44:46.858Z,62.10
2018-02-10T07:47:14.373Z,62.00
2018-02-10T07:49:42.678Z,61.90
2018-02-10T07:52:10.398Z,61.90
2018-02-10T07:54:38.938Z,61.90
2018-02-10T07:57:06.646Z,61.90
2018-02-10T07:59:35.129Z,61.50
2018-02-10T08:02:03.427Z,61.40
2018-02-10T08:04:31.050Z,61.40
2018-02-10T08:06:58.885Z,61.20
2018-02-10T08:09:26.587Z,61.60
2018-02-10T08:11:55.070Z,62.00
2018-02-10T08:14:23.357Z,62.50
2018-02-10T08:16:51.886Z,61.40
2018-02-10T08:19:19.590Z,61.30
2018-02-10T08:21:47.926Z,61.30
2018-02-10T08:24:15.793Z,61.20
2018-02-10T08:26:43.455Z,61.60
2018-02-10T08:29:11.157Z,61.20
2018-02-10T08:31:39.642Z,61.30
2018-02-10T08:34:07.989Z,61.50
2018-02-10T08:36:35.682Z,61.50
2018-02-10T08:39:04.165Z,60.90
2018-02-10T08:41:32.599Z,61.00
2018-02-10T08:44:00.186Z,60.90
2018-02-10T08:46:28.025Z,60.90
2018-02-10T08:48:55.734Z,60.80
2018-02-10T08:51:24.122Z,60.70
2018-02-10T08:53:52.486Z,60.70
2018-02-10T08:56:21.103Z,60.60
2018-02-10T08:58:48.894Z,60.60
2018-02-10T09:01:16.601Z,60.50
2018-02-10T09:03:45.037Z,60.40
2018-02-10T09:06:12.594Z,60.40
2018-02-10T09:08:40.310Z,60.30
2018-02-10T09:11:08.699Z,60.40
2018-02-10T09:13:36.333Z,60.40
2018-02-10T09:16:04.002Z,60.30
2018-02-10T09:18:32.440Z,60.20
2018-02-10T09:21:00.146Z,60.20
2018-02-10T09:23:28.684Z,60.10
2018-02-10T09:25:56.570Z,60.10
2018-02-10T09:28:24.354Z,60.30
2018-02-10T09:30:52.877Z,60.30
2018-02-10T09:33:20.473Z,60.20
2018-02-10T09:35:48.202Z,60.20
2018-02-10T09:38:15.742Z,60.10
2018-02-10T09:40:43.586Z,60.00
2018-02-10T09:43:12.101Z,59.90
2018-02-10T09:45:39.869Z,59.80
2018-02-10T09:48:07.682Z,59.80
2018-02-10T09:50:35.554Z,59.70
2018-02-10T09:53:03.418Z,60.00
2018-02-10T09:55:31.167Z,60.10
2018-02-10T09:57:58.917Z,59.90
2018-02-10T10:00:28.180Z,59.70
2018-02-10T10:02:56.158Z,59.80
2018-02-10T10:05:23.917Z,59.50
2018-02-10T10:07:51.777Z,59.50
2018-02-10T10:10:19.538Z,59.50
2018-02-10T10:12:47.306Z,59.60
2018-02-10T10:15:15.190Z,59.50
2018-02-10T10:17:43.054Z,59.60
2018-02-10T10:20:10.922Z,59.40
2018-02-10T10:22:38.670Z,59.40
2018-02-10T10:25:06.193Z,59.40
2018-02-10T10:27:34.033Z,59.20
2018-02-10T10:30:01.791Z,59.60
2018-02-10T10:32:29.666Z,58.90
2018-02-10T10:34:57.562Z,58.90
2018-02-10T10:37:25.396Z,58.90
2018-02-10T10:39:53.019Z,58.70
2018-02-10T10:42:20.653Z,58.50
2018-02-10T10:44:49.085Z,58.70
2018-02-10T10:47:16.806Z,58.60
2018-02-10T10:49:45.240Z,58.90
2018-02-10T10:52:12.913Z,58.90
2018-02-10T10:54:40.429Z,58.70
2018-02-10T10:57:08.058Z,58.80
2018-02-10T10:59:35.717Z,58.80
2018-02-10T11:02:04.026Z,59.80
2018-02-10T11:04:31.721Z,59.30
2018-02-10T11:06:59.588Z,59.10
2018-02-10T11:09:27.402Z,58.60
2018-02-10T11:11:55.833Z,59.00
2018-02-10T11:14:23.599Z,58.90
2018-02-10T11:16:51.301Z,58.70
2018-02-10T11:19:19.754Z,59.00
2018-02-10T11:21:47.403Z,59.00
2018-02-10T11:24:15.166Z,58.70
2018-02-10T11:26:42.930Z,58.80
2018-02-10T11:29:10.694Z,58.60
2018-02-10T11:31:38.565Z,58.80
2018-02-10T11:34:06.078Z,58.80
2018-02-10T11:36:34.602Z,59.00
2018-02-10T11:39:02.366Z,59.00
2018-02-10T11:41:30.027Z,58.70
2018-02-10T11:43:57.734Z,58.80
2018-02-10T11:46:26.026Z,58.80
2018-02-10T11:48:53.545Z,58.80
2018-02-10T11:51:21.229Z,58.60
2018-02-10T11:53:49.816Z,58.70
2018-02-10T11:56:17.738Z,58.70
2018-02-10T11:58:45.446Z,58.70
2018-02-10T12:01:13.983Z,59.00
2018-02-10T12:03:41.852Z,59.00
2018-02-10T12:06:09.545Z,59.00
2018-02-10T12:08:37.210Z,58.90
2018-02-10T12:11:04.874Z,59.10
2018-02-10T12:13:33.417Z,59.70
2018-02-10T12:16:00.934Z,59.10
2018-02-10T12:18:28.745Z,58.90
2018-02-10T12:20:56.403Z,58.70
2018-02-10T12:23:24.269Z,58.50
2018-02-10T12:25:52.033Z,58.90
2018-02-10T12:28:19.738Z,59.20
2018-02-10T12:30:48.038Z,59.00
2018-02-10T12:33:16.502Z,59.00
2018-02-10T12:35:43.990Z,59.00
2018-02-10T12:38:11.775Z,58.70
2018-02-10T12:40:39.334Z,58.70
2018-02-10T12:43:06.996Z,58.80
2018-02-10T12:45:34.760Z,58.60
2018-02-10T12:48:08.302Z,58.00
2018-02-10T12:50:36.740Z,58.30
2018-02-10T12:53:04.446Z,58.20
2018-02-10T12:55:32.985Z,58.10
2018-02-10T12:58:00.561Z,58.10
2018-02-10T13:00:28.098Z,58.00
2018-02-10T13:02:55.770Z,58.00
2018-02-10T13:05:23.529Z,57.80
2018-02-10T13:07:51.230Z,57.90
2018-02-10T13:10:20.285Z,57.60
2018-02-10T13:12:48.050Z,57.60
2018-02-10T13:15:15.753Z,57.70
2018-02-10T13:17:44.134Z,57.70
2018-02-10T13:20:12.673Z,57.60
2018-02-10T13:22:40.437Z,57.50
2018-02-10T13:25:08.142Z,57.50
2018-02-10T13:27:36.682Z,57.80
2018-02-10T13:30:04.186Z,57.80
2018-02-10T13:32:32.472Z,56.80
2018-02-10T13:35:01.101Z,57.10
2018-02-10T13:37:28.750Z,57.10
2018-02-10T13:39:56.424Z,56.90
2018-02-10T13:42:24.188Z,56.70
2018-02-10T13:44:51.952Z,56.80
2018-02-10T13:47:19.820Z,56.80
2018-02-10T13:49:47.523Z,57.20
2018-02-10T13:52:16.063Z,57.40
2018-02-10T13:54:43.827Z,57.40
2018-02-10T13:57:11.592Z,57.10
2018-02-10T13:59:40.175Z,57.00
2018-02-10T14:02:08.072Z,57.00
2018-02-10T14:04:35.742Z,57.00
2018-02-10T14:07:04.230Z,57.40
2018-02-10T14:09:32.708Z,57.70
2018-02-10T14:12:01.030Z,57.80
2018-02-10T14:14:28.584Z,57.70
2018-02-10T14:16:56.126Z,58.30
2018-02-10T14:19:23.666Z,57.70
2018-02-10T14:21:52.141Z,57.80
2018-02-10T14:24:20.622Z,58.00
2018-02-10T14:26:49.118Z,57.80
2018-02-10T14:29:17.644Z,58.20
2018-02-10T14:31:45.350Z,58.20
2018-02-10T14:34:13.830Z,58.70
2018-02-10T14:36:42.109Z,58.10
2018-02-10T14:39:10.397Z,57.70
2018-02-10T14:41:38.716Z,57.80
2018-02-10T14:44:06.254Z,57.80
2018-02-10T14:46:33.940Z,57.80
2018-02-10T14:49:01.704Z,58.00
2018-02-10T14:51:29.468Z,57.70
2018-02-10T14:53:57.231Z,56.70
2018-02-10T14:56:24.893Z,56.90
2018-02-10T14:58:52.425Z,56.90
2018-02-10T15:01:19.945Z,57.10
2018-02-10T15:03:47.561Z,57.00
2018-02-10T15:06:15.281Z,57.30
2018-02-10T15:08:42.846Z,57.70
2018-02-10T15:11:11.136Z,58.30
2018-02-10T15:13:38.674Z,57.80
2018-02-10T15:16:07.146Z,57.70
2018-02-10T15:18:34.770Z,57.70
2018-02-10T15:21:02.310Z,57.80
2018-02-10T15:23:30.298Z,57.90
2018-02-10T15:25:58.062Z,57.90
2018-02-10T15:28:25.784Z,57.90
2018-02-10T15:31:05.513Z,57.90
2018-02-10T15:33:45.866Z,57.80
2018-02-10T15:36:14.308Z,58.10
2018-02-10T15:38:42.018Z,57.70
2018-02-10T15:41:10.406Z,57.90
2018-02-10T15:43:38.932Z,57.90
2018-02-10T15:46:06.696Z,57.90
2018-02-10T15:48:34.460Z,57.90
2018-02-10T15:51:01.990Z,58.20
2018-02-10T15:53:29.534Z,58.10
2018-02-10T15:55:58.264Z,58.30
2018-02-10T15:58:25.927Z,58.30
2018-02-10T16:00:53.630Z,58.40
2018-02-10T16:03:22.110Z,58.40
2018-02-10T16:05:50.550Z,58.40
2018-02-10T16:08:18.211Z,58.40
2018-02-10T16:10:45.873Z,58.70
2018-02-10T16:13:13.578Z,58.60
2018-02-10T16:15:42.118Z,58.80
2018-02-10T16:18:09.780Z,58.80
2018-02-10T16:20:37.544Z,58.70
2018-02-10T16:23:05.114Z,58.70
2018-02-10T16:25:32.660Z,58.80
2018-02-10T16:28:00.206Z,58.80
2018-02-10T16:30:27.754Z,58.80
2018-02-10T16:32:55.298Z,58.80
2018-02-10T16:35:22.853Z,58.80
2018-02-10T16:37:51.585Z,59.20
2018-02-10T16:40:19.118Z,59.20
2018-02-10T16:42:46.634Z,59.20
2018-02-10T16:45:14.202Z,59.70
2018-02-10T16:47:42.585Z,59.40
2018-02-10T16:50:11.122Z,59.40
2018-02-10T16:52:38.686Z,59.40
2018-02-10T16:55:06.225Z,59.40
2018-02-10T16:57:34.242Z,60.00
2018-02-10T17:00:01.914Z,59.40
2018-02-10T17:02:30.286Z,59.50
2018-02-10T17:04:57.953Z,59.50
2018-02-10T17:07:26.326Z,59.40
2018-02-10T17:09:54.159Z,59.40
2018-02-10T17:12:21.742Z,59.50
2018-02-10T17:14:49.422Z,59.70
2018-02-10T17:17:17.961Z,59.80
2018-02-10T17:19:45.578Z,59.80
2018-02-10T17:22:13.274Z,59.90
2018-02-10T17:24:40.836Z,59.90
2018-02-10T17:27:08.353Z,60.10
2018-02-10T17:29:36.884Z,60.10
2018-02-10T17:32:04.446Z,60.10
2018-02-10T17:34:32.001Z,60.20
2018-02-10T17:36:59.542Z,60.30
2018-02-10T17:39:27.094Z,60.20
2018-02-10T17:41:54.649Z,60.80
2018-02-10T17:44:22.196Z,60.30
2018-02-10T17:46:50.657Z,60.40
2018-02-10T17:49:19.202Z,61.00
2018-02-10T17:51:47.068Z,60.50
2018-02-10T17:54:14.730Z,60.60
2018-02-10T17:56:42.434Z,60.60
2018-02-10T17:59:10.974Z,60.70
2018-02-10T18:01:38.738Z,60.70
2018-02-10T18:04:06.502Z,60.60
2018-02-10T18:06:34.267Z,60.90
2018-02-10T18:09:02.133Z,61.00
2018-02-10T18:11:29.898Z,61.10
2018-02-10T18:13:57.482Z,61.10
2018-02-10T18:16:25.324Z,61.30
2018-02-10T18:18:52.882Z,60.90
2018-02-10T18:21:20.430Z,60.90
2018-02-10T18:23:47.976Z,61.00
2018-02-10T18:26:15.522Z,61.10
2018-02-10T18:28:43.070Z,61.00
2018-02-10T18:31:11.541Z,61.20
2018-02-10T18:33:39.161Z,61.10
2018-02-10T18:36:06.701Z,61.00
2018-02-10T18:38:34.265Z,60.80
2018-02-10T18:41:01.814Z,60.90
2018-02-10T18:43:29.366Z,60.90
2018-02-10T18:45:56.913Z,61.20
2018-02-10T18:48:25.374Z,61.10
2018-02-10T18:50:53.917Z,61.70
2018-02-10T18:53:21.580Z,61.10
2018-02-10T18:55:49.118Z,61.30
2018-02-10T18:58:16.666Z,61.10
2018-02-10T19:00:44.215Z,61.00
2018-02-10T19:03:11.767Z,60.90
2018-02-10T19:05:40.410Z,61.00
2018-02-10T19:08:07.966Z,61.00
2018-02-10T19:10:35.642Z,60.90
2018-02-10T19:13:03.487Z,60.80
2018-02-10T19:15:31.149Z,61.00
2018-02-10T19:17:58.811Z,61.10
2018-02-10T19:20:26.522Z,61.30
2018-02-10T19:22:55.055Z,61.50
2018-02-10T19:25:23.835Z,61.50
2018-02-10T19:27:51.608Z,61.40
2018-02-10T19:30:19.372Z,61.50
2018-02-10T19:32:47.077Z,61.40
2018-02-10T19:35:15.566Z,61.60
2018-02-10T19:37:44.037Z,61.60
2018-02-10T19:40:12.578Z,61.70
2018-02-10T19:42:40.548Z,61.70
2018-02-10T19:45:08.104Z,61.70
2018-02-10T19:47:35.650Z,61.70
2018-02-10T19:50:03.204Z,61.90
2018-02-10T19:52:30.746Z,62.00
2018-02-10T19:54:58.302Z,62.00
2018-02-10T19:57:25.842Z,62.00
2018-02-10T19:59:54.331Z,62.20
2018-02-10T20:02:22.868Z,62.20
2018-02-10T20:04:50.526Z,62.20
2018-02-10T20:07:18.050Z,62.30
2018-02-10T20:09:45.594Z,62.30
2018-02-10T20:12:14.062Z,62.30
2018-02-10T20:14:42.606Z,62.80
2018-02-10T20:17:10.472Z,62.30
2018-02-10T20:19:38.177Z,62.20
2018-02-10T20:22:06.498Z,62.10
2018-02-10T20:24:34.042Z,62.10
2018-02-10T20:27:01.578Z,62.00
2018-02-10T20:29:30.215Z,62.40
2018-02-10T20:31:57.814Z,62.40
2018-02-10T20:34:26.126Z,62.40
2018-02-10T20:36:53.682Z,62.40
2018-02-10T20:39:21.234Z,62.30
2018-02-10T20:41:48.786Z,62.40
2018-02-10T20:44:17.209Z,62.50
2018-02-10T20:46:44.838Z,62.50
2018-02-10T20:49:12.532Z,62.60
2018-02-10T20:51:40.194Z,62.70
2018-02-10T20:54:07.902Z,62.80
2018-02-10T20:56:36.298Z,62.80
2018-02-10T20:59:04.042Z,62.80
2018-02-10T21:01:32.386Z,62.80
2018-02-10T21:04:00.345Z,62.90
2018-02-10T21:06:27.862Z,62.90
2018-02-10T21:08:56.334Z,62.90
2018-02-10T21:11:24.726Z,63.20
2018-02-10T21:13:52.470Z,63.10
2018-02-10T21:16:20.866Z,63.00
2018-02-10T21:18:48.450Z,62.90
2018-02-10T21:21:16.306Z,63.00
2018-02-10T21:23:44.055Z,63.10
2018-02-10T21:26:11.829Z,63.10
2018-02-10T21:28:39.550Z,63.20
2018-02-10T21:31:07.122Z,63.20
2018-02-10T21:33:35.698Z,63.40
2018-02-10T21:36:03.333Z,63.40
2018-02-10T21:38:30.986Z,63.30
2018-02-10T21:40:58.766Z,63.40
2018-02-10T21:43:26.622Z,63.40
2018-02-10T21:45:54.379Z,63.40
2018-02-10T21:48:22.130Z,63.20
2018-02-10T21:50:50.198Z,63.00
2018-02-10T21:53:17.958Z,62.90
2018-02-10T21:55:45.811Z,62.90
2018-02-10T21:58:13.586Z,62.90
2018-02-10T22:00:41.342Z,62.70
2018-02-10T22:03:09.196Z,62.70
2018-02-10T22:05:37.502Z,62.70
2018-02-10T22:08:05.094Z,62.60
2018-02-10T22:10:32.854Z,62.70
2018-02-10T22:13:00.402Z,62.50
2018-02-10T22:15:28.343Z,62.00
2018-02-10T22:17:55.898Z,61.90
2018-02-10T22:20:23.665Z,61.70
2018-02-10T22:22:51.579Z,62.00
2018-02-10T22:25:19.376Z,61.70
2018-02-10T22:27:47.910Z,61.60
2018-02-10T22:30:15.778Z,61.60
2018-02-10T22:32:43.650Z,61.90
2018-02-10T22:35:11.514Z,62.00
2018-02-10T22:37:39.391Z,62.10
2018-02-10T22:40:07.261Z,62.00
2018-02-10T22:42:35.138Z,61.80
2018-02-10T22:45:03.014Z,61.80
2018-02-10T22:47:30.910Z,61.60
2018-02-10T22:49:58.683Z,61.50
2018-02-10T22:52:26.446Z,61.50
2018-02-10T22:54:54.198Z,61.20
2018-02-10T22:57:22.082Z,61.00
2018-02-10T22:59:49.833Z,60.90
2018-02-10T23:02:17.726Z,60.90
2018-02-10T23:04:45.486Z,61.10
2018-02-10T23:07:13.238Z,60.70
2018-02-10T23:09:41.126Z,60.60
2018-02-10T23:12:08.901Z,60.20
2018-02-10T23:14:36.762Z,59.70
2018-02-10T23:17:04.635Z,59.40
2018-02-10T23:19:32.386Z,59.60
2018-02-10T23:22:00.244Z,59.90
2018-02-10T23:24:28.110Z,59.80
2018-02-10T23:26:55.993Z,59.90
2018-02-10T23:29:23.803Z,59.80
2018-02-10T23:31:52.341Z,59.50
2018-02-10T23:34:20.319Z,59.50
2018-02-10T23:36:48.131Z,59.40
2018-02-10T23:39:15.914Z,59.40
2018-02-10T23:41:43.797Z,59.50
2018-02-10T23:44:11.681Z,59.40
2018-02-10T23:46:39.554Z,59.50
2018-02-10T23:49:07.422Z,59.70
2018-02-10T23:51:35.174Z,59.40
2018-02-10T23:54:03.035Z,59.30
2018-02-10T23:56:31.722Z,59.40
2018-02-10T23:58:59.491Z,59.30
